createdAt,value
2018-07-25T00:02:18.336Z,17.02
2018-07-25T00:06:52.507Z,17.25
2018-07-25T00:11:27.491Z,18.02
2018-07-25T00:16:03.593Z,17.92
2018-07-25T00:20:38.119Z,17.73
2018-07-25T00:25:12.427Z,18.95
2018-07-25T00:29:46.608Z,17.77
2018-07-25T00:34:21.383Z,18.62
2018-07-25T00:38:56.616Z,19.15
2018-07-25T00:43:31.494Z,19.98
2018-07-25T00:48:06.324Z,20.08
2018-07-25T00:52:40.787Z,19.15
2018-07-25T00:57:16.380Z,18.10
2018-07-25T01:01:51.530Z,19.23
2018-07-25T01:06:25.844Z,18.77
2018-07-25T01:11:01.549Z,19.07
2018-07-25T01:15:35.936Z,18.25
2018-07-25T01:20:10.882Z,20.00
2018-07-25T01:24:45.228Z,19.77
2018-07-25T01:29:20.886Z,20.40
2018-07-25T01:33:54.843Z,20.23
2018-07-25T01:38:29.164Z,19.92
2018-07-25T01:43:03.663Z,21.87
2018-07-25T01:47:37.903Z,20.10
2018-07-25T01:52:12.560Z,21.45
2018-07-25T01:56:47.479Z,20.05
2018-07-25T02:01:21.878Z,20.52
2018-07-25T02:05:57.244Z,19.77
2018-07-25T02:10:33.580Z,21.12
2018-07-25T02:15:08.483Z,20.17
2018-07-25T02:19:42.916Z,19.80
2018-07-25T02:24:17.784Z,20.32
2018-07-25T02:28:52.631Z,20.35
2018-07-25T02:33:32.840Z,19.57
2018-07-25T02:38:07.142Z,20.62
2018-07-25T02:42:42.089Z,20.30
2018-07-25T02:47:16.056Z,21.02
2018-07-25T02:51:50.211Z,21.90
2018-07-25T02:56:24.588Z,20.82
2018-07-25T03:00:59.738Z,20.55
2018-07-25T03:05:34.807Z,19.98
2018-07-25T03:10:09.135Z,22.13
2018-07-25T03:14:43.388Z,22.00
2018-07-25T03:19:17.682Z,22.17
2018-07-25T03:23:51.911Z,21.12
2018-07-25T03:28:26.942Z,22.35
2018-07-25T03:33:01.400Z,22.62
2018-07-25T03:37:35.687Z,21.65
2018-07-25T03:42:11.194Z,21.30
2018-07-25T03:46:45.618Z,21.23
2018-07-25T03:51:20.565Z,20.75
2018-07-25T03:55:54.964Z,20.45
2018-07-25T04:00:29.444Z,21.20
2018-07-25T04:05:03.740Z,21.30
2018-07-25T04:09:37.984Z,23.02
2018-07-25T04:14:13.380Z,21.57
2018-07-25T04:18:48.539Z,22.15
2018-07-25T04:23:23.780Z,22.42
2018-07-25T04:27:58.013Z,22.10
2018-07-25T04:32:32.948Z,20.23
2018-07-25T04:37:07.216Z,21.65
2018-07-25T04:41:43.284Z,21.87
2018-07-25T04:46:19.038Z,22.22
2018-07-25T04:50:53.195Z,21.48
2018-07-25T04:55:27.463Z,21.48
2018-07-25T05:00:02.160Z,21.27
2018-07-25T05:04:36.908Z,22.32
2018-07-25T05:09:12.691Z,23.75
2018-07-25T05:13:48.255Z,22.27
2018-07-25T05:18:22.492Z,27.13
2018-07-25T05:22:57.628Z,22.48
2018-07-25T05:27:31.784Z,23.95
2018-07-25T05:32:06.141Z,23.55
2018-07-25T05:36:40.869Z,24.32
2018-07-25T05:41:15.175Z,24.43
2018-07-25T05:45:49.527Z,25.60
2018-07-25T05:50:23.754Z,25.95
2018-07-25T05:54:59.063Z,27.62
2018-07-25T05:59:34.024Z,26.62
2018-07-25T06:04:08.784Z,28.12
2018-07-25T06:08:43.797Z,25.72
2018-07-25T06:13:18.084Z,25.85
2018-07-25T06:17:52.992Z,26.23
2018-07-25T06:22:28.007Z,28.65
2018-07-25T06:27:02.943Z,27.65
2018-07-25T06:31:45.513Z,27.00
2018-07-25T06:36:20.067Z,25.50
2018-07-25T06:40:58.606Z,24.95
2018-07-25T06:45:35.628Z,25.45
2018-07-25T06:50:09.940Z,24.52
2018-07-25T06:54:45.595Z,23.10
2018-07-25T06:59:19.945Z,21.85
2018-07-25T07:03:54.912Z,20.17
2018-07-25T07:08:29.083Z,18.62
2018-07-25T07:13:04.199Z,18.95
2018-07-25T07:17:38.131Z,18.00
2018-07-25T07:22:12.175Z,18.42
2018-07-25T07:26:46.778Z,19.00
2018-07-25T07:31:21.136Z,20.37
2018-07-25T07:35:55.529Z,20.80
2018-07-25T07:40:30.519Z,20.25
2018-07-25T07:45:06.509Z,20.80
2018-07-25T07:49:41.363Z,19.25
2018-07-25T07:54:16.368Z,19.50
2018-07-25T07:58:51.301Z,18.32
2018-07-25T08:03:25.612Z,16.85
2018-07-25T08:08:00.571Z,15.08
2018-07-25T08:12:34.887Z,14.90
2018-07-25T08:17:09.805Z,12.58
2018-07-25T08:21:44.076Z,13.78
2018-07-25T08:26:18.892Z,13.25
2018-07-25T08:30:53.491Z,12.53
2018-07-25T08:35:27.696Z,11.80
2018-07-25T08:40:02.762Z,11.50
2018-07-25T08:44:37.088Z,10.72
2018-07-25T08:49:12.764Z,10.65
2018-07-25T08:53:47.427Z,10.70
2018-07-25T08:58:23.931Z,10.65
2018-07-25T09:02:58.797Z,10.55
2018-07-25T09:07:36.025Z,10.15
2018-07-25T09:12:11.477Z,11.00
2018-07-25T09:16:45.402Z,10.55
2018-07-25T09:21:19.599Z,10.53
2018-07-25T09:25:54.263Z,9.18
2018-07-25T09:30:30.203Z,11.10
2018-07-25T09:35:07.273Z,9.13
2018-07-25T09:39:41.935Z,8.70
2018-07-25T09:44:16.536Z,7.78
2018-07-25T09:48:50.930Z,7.35
2018-07-25T09:53:26.708Z,7.25
2018-07-25T09:58:00.974Z,6.80
2018-07-25T10:02:35.911Z,7.17
2018-07-25T10:07:10.253Z,6.60
2018-07-25T10:11:44.561Z,5.80
2018-07-25T10:16:20.141Z,5.75
2018-07-25T10:20:55.514Z,5.72
2018-07-25T10:25:29.819Z,4.97
2018-07-25T10:30:04.745Z,5.42
2018-07-25T10:34:39.166Z,5.05
2018-07-25T10:39:13.971Z,5.03
2018-07-25T10:43:49.199Z,4.72
2018-07-25T10:48:23.589Z,4.60
2018-07-25T10:52:57.945Z,4.80
2018-07-25T10:57:33.460Z,5.00
2018-07-25T11:02:08.134Z,4.92
2018-07-25T11:06:42.528Z,4.47
2018-07-25T11:11:17.668Z,5.12
2018-07-25T11:15:52.453Z,4.83
2018-07-25T11:20:28.091Z,4.55
2018-07-25T11:25:02.784Z,4.85
2018-07-25T11:29:38.060Z,4.67
2018-07-25T11:34:12.364Z,4.60
2018-07-25T11:38:47.922Z,4.65
2018-07-25T11:43:23.621Z,4.42
2018-07-25T11:47:57.930Z,4.58
2018-07-25T11:52:32.319Z,4.78
2018-07-25T11:57:07.641Z,4.45
2018-07-25T12:01:41.665Z,4.40
2018-07-25T12:06:17.179Z,3.87
2018-07-25T12:10:51.685Z,3.62
2018-07-25T12:15:32.967Z,3.72
2018-07-25T12:20:13.682Z,4.65
2018-07-25T12:24:53.758Z,4.50
2018-07-25T12:29:34.980Z,4.05
2018-07-25T12:34:16.119Z,3.83
2018-07-25T12:38:56.547Z,3.27
2018-07-25T12:43:37.082Z,3.70
2018-07-25T12:48:17.159Z,3.65
2018-07-25T12:52:58.293Z,3.67
2018-07-25T12:57:38.981Z,3.77
2018-07-25T13:02:18.946Z,3.72
2018-07-25T13:06:59.080Z,3.42
2018-07-25T13:11:39.800Z,3.80
2018-07-25T13:16:19.770Z,4.08
2018-07-25T13:21:00.792Z,4.10
2018-07-25T13:25:41.339Z,3.98
2018-07-25T13:30:20.992Z,3.95
2018-07-25T13:35:01.162Z,3.95
2018-07-25T13:39:41.411Z,4.17
2018-07-25T13:44:21.995Z,4.37
2018-07-25T13:49:02.391Z,4.60
2018-07-25T13:53:42.336Z,4.58
2018-07-25T13:58:23.792Z,4.87
2018-07-25T14:03:03.627Z,4.92
2018-07-25T14:07:44.731Z,5.28
2018-07-25T14:12:24.656Z,5.20
2018-07-25T14:17:05.236Z,4.78
2018-07-25T14:21:45.043Z,4.92
2018-07-25T14:26:26.200Z,5.15
2018-07-25T14:31:05.963Z,4.72
2018-07-25T14:35:46.115Z,5.00
2018-07-25T14:40:28.125Z,5.05
2018-07-25T14:45:07.928Z,4.92
2018-07-25T14:49:47.972Z,4.58
2018-07-25T14:54:27.865Z,4.72
2018-07-25T14:59:07.936Z,5.00
2018-07-25T15:03:47.762Z,5.10
2018-07-25T15:08:27.992Z,5.50
2018-07-25T15:13:07.891Z,5.80
2018-07-25T15:17:48.489Z,5.70
2018-07-25T15:22:28.904Z,5.90
2018-07-25T15:27:08.744Z,5.33
2018-07-25T15:31:48.715Z,5.05
2018-07-25T15:36:59.979Z,6.10
2018-07-25T15:41:39.708Z,7.28
2018-07-25T15:46:19.852Z,5.80
2018-07-25T15:51:04.408Z,6.60
2018-07-25T15:55:45.483Z,5.83
2018-07-25T16:00:25.316Z,6.05
2018-07-25T16:05:05.299Z,5.78
2018-07-25T16:09:45.936Z,6.42
2018-07-25T16:14:26.004Z,6.08
2018-07-25T16:19:06.193Z,5.97
2018-07-25T16:23:45.972Z,6.00
2018-07-25T16:28:26.652Z,6.00
2018-07-25T16:33:06.545Z,5.62
2018-07-25T16:37:46.756Z,6.00
2018-07-25T16:42:26.748Z,6.60
2018-07-25T16:47:07.735Z,6.50
2018-07-25T16:51:48.117Z,5.83
2018-07-25T16:56:29.952Z,5.58
2018-07-25T17:01:09.851Z,5.70
2018-07-25T17:05:50.051Z,6.33
2018-07-25T17:10:29.896Z,5.58
2018-07-25T17:15:10.738Z,11.15
2018-07-25T17:19:51.304Z,20.30
2018-07-25T17:24:31.357Z,6.08
2018-07-25T17:29:11.691Z,6.40
2018-07-25T17:33:52.077Z,6.20
2018-07-25T17:38:31.836Z,6.78
2018-07-25T17:43:12.652Z,6.72
2018-07-25T17:47:52.736Z,7.55
2018-07-25T17:52:33.920Z,7.90
2018-07-25T17:57:13.995Z,6.72
2018-07-25T18:01:54.877Z,6.70
2018-07-25T18:06:34.160Z,6.60
2018-07-25T18:11:14.559Z,6.87
2018-07-25T18:15:54.823Z,6.90
2018-07-25T18:20:34.915Z,7.00
2018-07-25T18:25:15.368Z,7.60
2018-07-25T18:29:55.452Z,7.20
2018-07-25T18:34:36.087Z,8.35
2018-07-25T18:39:16.623Z,8.65
2018-07-25T18:43:51.023Z,7.03
2018-07-25T18:48:27.129Z,8.23
2018-07-25T18:53:02.519Z,8.25
2018-07-25T18:57:38.847Z,8.40
2018-07-25T19:02:14.272Z,8.40
2018-07-25T19:06:50.574Z,10.58
2018-07-25T19:11:25.436Z,8.68
2018-07-25T19:16:00.439Z,10.13
2018-07-25T19:20:34.599Z,9.63
2018-07-25T19:25:09.046Z,9.65
2018-07-25T19:29:43.271Z,9.68
2018-07-25T19:34:18.106Z,9.40
2018-07-25T19:38:52.400Z,9.70
2018-07-25T19:43:26.204Z,10.03
2018-07-25T19:48:00.033Z,9.78
2018-07-25T19:52:34.162Z,10.43
2018-07-25T19:57:08.340Z,9.75
2018-07-25T20:01:42.591Z,10.28
2018-07-25T20:06:16.860Z,10.58
2018-07-25T20:10:51.357Z,10.50
2018-07-25T20:15:30.888Z,10.48
2018-07-25T20:20:05.398Z,10.48
2018-07-25T20:24:39.292Z,11.70
2018-07-25T20:29:14.286Z,11.33
2018-07-25T20:33:49.000Z,13.62
2018-07-25T20:38:24.440Z,11.78
2018-07-25T20:42:58.875Z,10.93
2018-07-25T20:47:33.304Z,11.30
2018-07-25T20:52:07.607Z,11.40
2018-07-25T20:56:41.840Z,11.15
2018-07-25T21:01:16.075Z,11.68
2018-07-25T21:05:50.299Z,16.45
2018-07-25T21:10:24.920Z,12.60
2018-07-25T21:15:05.308Z,11.57
2018-07-25T21:19:45.701Z,11.88
2018-07-25T21:24:25.823Z,12.58
2018-07-25T21:29:08.121Z,11.93
2018-07-25T21:33:48.783Z,12.98
2018-07-25T21:38:28.521Z,12.23
2018-07-25T21:43:09.846Z,12.68
2018-07-25T21:47:49.636Z,12.90
2018-07-25T21:52:29.399Z,12.93
2018-07-25T21:57:10.339Z,13.05
2018-07-25T22:01:50.115Z,13.35
2018-07-25T22:06:30.299Z,13.13
2018-07-25T22:11:10.145Z,13.45
2018-07-25T22:15:50.960Z,13.40
2018-07-25T22:20:30.810Z,13.65
2018-07-25T22:25:11.832Z,13.32
2018-07-25T22:29:52.364Z,13.85
2018-07-25T22:34:32.476Z,13.68
2018-07-25T22:39:12.475Z,13.62
2018-07-25T22:43:53.316Z,14.10
2018-07-25T22:48:33.711Z,13.93
2018-07-25T22:53:14.980Z,14.40
2018-07-25T22:57:55.096Z,13.75
2018-07-25T23:02:35.811Z,15.18
2018-07-25T23:07:16.396Z,14.53
2018-07-25T23:11:56.119Z,15.28
2018-07-25T23:16:36.894Z,15.63
2018-07-25T23:21:18.503Z,14.90
2018-07-25T23:25:59.995Z,15.18
2018-07-25T23:30:40.120Z,14.55
2018-07-25T23:35:21.443Z,15.93
2018-07-25T23:40:01.393Z,15.98
2018-07-25T23:44:41.196Z,15.90
2018-07-25T23:49:22.331Z,15.60
2018-07-25T23:54:03.258Z,15.35
2018-07-25T23:58:42.629Z,15.35
